Time;durP1;ratioP1;P1;durP2;ratioP2;P2;SDS_P1;SDS_P2;PMS_P1;PMS_P2;Temp;Humidity;BMP_temperature;BMP_pressure;BME280_temperature;BME280_humidity;BME280_pressure;Samples;Min_cycle;Max_cycle;Signal;HPM_P1;HPM_P2
2022/03/25 00:01:19;;;;;;;5.90;4.47;;;9.80;1.00;;;;;;5070525;28;20248;-68
2022/03/25 00:03:46;;;;;;;7.53;5.27;;;9.80;1.00;;;;;;5070726;28;20255;-68
2022/03/25 00:06:13;;;;;;;6.33;5.37;;;9.70;1.00;;;;;;5070691;28;20283;-68
2022/03/25 00:08:41;;;;;;;7.43;5.20;;;9.70;1.00;;;;;;5071253;28;20209;-69
2022/03/25 00:11:08;;;;;;;7.90;5.80;;;9.70;1.00;;;;;;5069933;28;20210;-69
2022/03/25 00:13:36;;;;;;;6.20;4.63;;;9.70;1.00;;;;;;5070677;28;20207;-68
2022/03/25 00:16:05;;;;;;;6.20;5.10;;;9.60;1.00;;;;;;5070116;28;20247;-69
2022/03/25 00:18:32;;;;;;;7.03;5.33;;;9.50;1.00;;;;;;5070597;28;20637;-69
2022/03/25 00:20:59;;;;;;;5.63;5.13;;;9.60;1.00;;;;;;5070259;28;20241;-68
2022/03/25 00:23:26;;;;;;;7.17;5.33;;;9.60;1.00;;;;;;5070707;28;20564;-68
2022/03/25 00:25:53;;;;;;;6.07;5.27;;;9.50;1.00;;;;;;5070266;28;20234;-68
2022/03/25 00:28:20;;;;;;;7.47;5.13;;;9.60;1.00;;;;;;5070436;28;20327;-68
2022/03/25 00:30:49;;;;;;;7.57;5.53;;;9.40;1.00;;;;;;5069948;28;20233;-69
2022/03/25 00:33:16;;;;;;;6.33;5.10;;;9.40;1.00;;;;;;5070632;28;20198;-69
2022/03/25 00:35:44;;;;;;;5.60;5.03;;;9.50;1.00;;;;;;5070824;28;20206;-68
2022/03/25 00:38:12;;;;;;;7.93;6.00;;;9.60;1.00;;;;;;5070550;28;20205;-68
2022/03/25 00:40:39;;;;;;;6.63;5.73;;;9.60;1.00;;;;;;5070308;28;20202;-68
2022/03/25 00:43:06;;;;;;;5.87;5.13;;;9.60;1.00;;;;;;5070105;28;20202;-67
2022/03/25 00:45:34;;;;;;;8.07;5.33;;;9.70;1.00;;;;;;5070064;28;20209;-69
2022/03/25 00:48:02;;;;;;;7.73;6.00;;;9.60;1.00;;;;;;5069993;28;20747;-68
2022/03/25 00:50:29;;;;;;;5.27;4.70;;;9.50;1.00;;;;;;5070395;28;20229;-68
2022/03/25 00:52:56;;;;;;;10.07;6.10;;;9.50;1.00;;;;;;5070081;28;20228;-70
2022/03/25 00:55:23;;;;;;;6.37;5.53;;;9.40;1.00;;;;;;5070414;28;20198;-69
2022/03/25 00:57:50;;;;;;;8.97;5.43;;;9.50;1.00;;;;;;5070024;28;20203;-69
2022/03/25 01:00:18;;;;;;;6.87;5.73;;;9.40;1.00;;;;;;5070089;28;20202;-69
2022/03/25 01:02:45;;;;;;;6.07;5.47;;;9.40;1.00;;;;;;5070456;28;20206;-68
2022/03/25 01:05:13;;;;;;;6.53;5.40;;;9.40;1.00;;;;;;5070273;28;20210;-69
2022/03/25 01:07:40;;;;;;;7.00;4.97;;;9.30;1.00;;;;;;5070319;28;20237;-68
2022/03/25 01:10:08;;;;;;;5.60;4.17;;;9.50;1.00;;;;;;5069977;28;20206;-69
2022/03/25 01:12:35;;;;;;;7.23;4.83;;;9.50;1.00;;;;;;5069970;28;20236;-68
2022/03/25 01:15:02;;;;;;;6.43;5.10;;;9.40;1.00;;;;;;5069690;28;20203;-68
2022/03/25 01:17:29;;;;;;;6.57;4.63;;;9.40;1.00;;;;;;5070036;28;20218;-68
2022/03/25 01:19:56;;;;;;;7.43;5.07;;;9.40;1.00;;;;;;5069850;28;20203;-68
2022/03/25 01:22:24;;;;;;;6.77;5.60;;;9.40;1.00;;;;;;5070548;28;20203;-68
2022/03/25 01:24:51;;;;;;;5.90;4.67;;;9.40;1.00;;;;;;5073419;28;20207;-68
2022/03/25 01:27:19;;;;;;;6.37;5.77;;;9.30;1.00;;;;;;5073492;28;20234;-67
2022/03/25 01:29:46;;;;;;;7.13;5.17;;;9.30;1.00;;;;;;5073457;28;20230;-68
2022/03/25 01:32:13;;;;;;;8.43;5.80;;;9.30;1.00;;;;;;5073709;28;20202;-68
2022/03/25 01:34:40;;;;;;;6.23;4.87;;;9.30;1.00;;;;;;5073882;28;20293;-68
2022/03/25 01:37:07;;;;;;;6.20;5.37;;;9.30;1.00;;;;;;5073083;28;20206;-68
2022/03/25 01:39:35;;;;;;;8.00;5.17;;;9.30;1.00;;;;;;5073323;28;20202;-68
2022/03/25 01:42:02;;;;;;;6.47;5.70;;;9.30;1.00;;;;;;5072850;28;20202;-68
2022/03/25 01:44:31;;;;;;;6.33;5.57;;;9.20;1.00;;;;;;5073208;28;20271;-68
2022/03/25 01:47:00;;;;;;;6.83;5.37;;;9.30;1.00;;;;;;5072649;28;20641;-68
2022/03/25 01:49:27;;;;;;;7.33;5.60;;;9.40;1.00;;;;;;5073071;28;20202;-68
2022/03/25 01:51:59;;;;;;;7.80;6.20;;;9.40;1.00;;;;;;5072723;28;20255;-68
2022/03/25 01:54:28;;;;;;;9.17;6.83;;;9.40;1.00;;;;;;5072739;28;20670;-68
2022/03/25 01:56:59;;;;;;;14.80;6.60;;;9.40;1.00;;;;;;5072507;28;20669;-68
2022/03/25 01:59:26;;;;;;;8.27;7.20;;;9.50;1.00;;;;;;5072733;28;20272;-68
2022/03/25 02:01:54;;;;;;;9.13;6.40;;;9.50;1.00;;;;;;5072605;28;20202;-69
2022/03/25 02:04:21;;;;;;;7.70;6.80;;;9.50;1.00;;;;;;5072722;28;20228;-69
2022/03/25 02:06:49;;;;;;;10.13;6.93;;;9.50;1.00;;;;;;5072294;28;20222;-69
2022/03/25 02:09:16;;;;;;;8.83;6.97;;;9.50;1.00;;;;;;5072656;28;20546;-68
2022/03/25 02:11:44;;;;;;;10.57;7.63;;;9.40;1.00;;;;;;5073118;28;20255;-68
2022/03/25 02:14:13;;;;;;;9.27;8.27;;;9.50;1.00;;;;;;5072595;28;20268;-68
2022/03/25 02:16:42;;;;;;;9.23;7.00;;;9.40;1.00;;;;;;5072809;28;20752;-68
2022/03/25 02:19:10;;;;;;;9.43;7.93;;;9.40;1.00;;;;;;5072067;28;20662;-67
2022/03/25 02:21:40;;;;;;;10.27;8.40;;;9.40;1.00;;;;;;5072743;28;20202;-68
2022/03/25 02:24:08;;;;;;;11.50;8.67;;;9.40;1.00;;;;;;5072194;28;20271;-68
2022/03/25 02:26:37;;;;;;;12.00;9.40;;;9.40;1.00;;;;;;5072269;28;20234;-67
2022/03/25 02:29:05;;;;;;;13.37;8.80;;;9.40;1.00;;;;;;5071819;28;20256;-67
2022/03/25 02:31:32;;;;;;;10.07;8.90;;;9.30;1.00;;;;;;5072280;28;20241;-67
2022/03/25 02:34:02;;;;;;;11.57;8.57;;;9.30;1.00;;;;;;5071554;28;20617;-67
2022/03/25 02:36:29;;;;;;;13.37;9.27;;;9.30;1.00;;;;;;5072125;28;20695;-67
2022/03/25 02:38:57;;;;;;;10.63;9.27;;;9.10;1.00;;;;;;5071821;28;20616;-67
2022/03/25 02:41:24;;;;;;;12.50;10.63;;;9.20;1.00;;;;;;5071781;28;20251;-67
2022/03/25 02:43:52;;;;;;;13.97;10.27;;;9.20;1.00;;;;;;5071871;28;20244;-67
2022/03/25 02:46:18;;;;;;;11.33;9.40;;;9.30;1.00;;;;;;5071948;28;20202;-67
2022/03/25 02:48:45;;;;;;;10.67;8.13;;;9.30;1.00;;;;;;5072173;28;20259;-68
2022/03/25 02:51:12;;;;;;;11.90;9.23;;;9.30;1.00;;;;;;5072047;28;20214;-67
2022/03/25 02:53:39;;;;;;;11.43;9.50;;;9.30;1.00;;;;;;5071755;28;20577;-67
2022/03/25 02:56:08;;;;;;;10.63;9.57;;;9.40;1.00;;;;;;5071357;28;21136;-67
2022/03/25 02:58:35;;;;;;;12.20;9.67;;;9.40;1.00;;;;;;5071798;28;20670;-67
2022/03/25 03:01:02;;;;;;;10.43;8.33;;;9.30;1.00;;;;;;5071233;28;20673;-66
2022/03/25 03:03:29;;;;;;;9.80;8.90;;;9.40;1.00;;;;;;5071894;28;20205;-66
2022/03/25 03:05:56;;;;;;;10.33;9.27;;;9.40;1.00;;;;;;5071294;28;20261;-67
2022/03/25 03:08:24;;;;;;;8.77;7.97;;;9.30;1.00;;;;;;5071494;28;20233;-67
2022/03/25 03:10:51;;;;;;;11.53;10.00;;;9.40;1.00;;;;;;5071037;28;20198;-67
2022/03/25 03:13:20;;;;;;;10.40;9.40;;;9.30;1.00;;;;;;5071579;28;20199;-68
2022/03/25 03:15:48;;;;;;;10.07;8.97;;;9.50;1.00;;;;;;5071474;28;20253;-67
2022/03/25 03:18:15;;;;;;;11.37;9.87;;;9.40;1.00;;;;;;5071667;28;20198;-68
2022/03/25 03:20:42;;;;;;;10.07;8.50;;;9.40;1.00;;;;;;5071877;28;20202;-67
2022/03/25 03:23:10;;;;;;;11.70;8.50;;;9.40;1.00;;;;;;5070906;28;20727;-68
2022/03/25 03:25:37;;;;;;;12.87;9.50;;;9.30;1.00;;;;;;5071001;28;20202;-67
2022/03/25 03:28:05;;;;;;;9.93;8.93;;;9.30;1.00;;;;;;5070704;28;20275;-67
2022/03/25 03:30:33;;;;;;;13.90;9.23;;;9.50;1.00;;;;;;5071357;28;20279;-67
2022/03/25 03:33:04;;;;;;;11.17;9.33;;;9.40;1.00;;;;;;5070969;28;20236;-68
2022/03/25 03:35:34;;;;;;;17.50;10.23;;;9.40;1.00;;;;;;5071148;28;20199;-67
2022/03/25 03:38:02;;;;;;;11.30;9.27;;;9.40;1.00;;;;;;5070801;28;20206;-67
2022/03/25 03:40:29;;;;;;;10.90;9.77;;;9.40;1.00;;;;;;5070652;28;20259;-68
2022/03/25 03:42:56;;;;;;;10.67;9.57;;;9.30;1.00;;;;;;5070867;28;20210;-68
2022/03/25 03:45:23;;;;;;;11.87;10.03;;;9.30;1.00;;;;;;5070366;28;20739;-68
2022/03/25 03:47:52;;;;;;;14.93;9.47;;;9.30;1.00;;;;;;5070562;28;20655;-67
2022/03/25 03:50:19;;;;;;;11.77;9.50;;;9.40;1.00;;;;;;5070927;28;20210;-68
2022/03/25 03:52:46;;;;;;;10.63;9.50;;;9.30;1.00;;;;;;5070878;28;20198;-69
2022/03/25 03:55:13;;;;;;;12.20;9.30;;;9.20;1.00;;;;;;5070857;28;20247;-68
2022/03/25 03:57:40;;;;;;;12.40;10.27;;;9.30;1.00;;;;;;5070679;28;20255;-67
2022/03/25 04:00:10;;;;;;;12.10;10.53;;;9.20;1.00;;;;;;5070448;28;20263;-67
2022/03/25 04:02:38;;;;;;;11.03;9.93;;;9.20;1.00;;;;;;5070985;28;20202;-68
2022/03/25 04:05:07;;;;;;;10.87;9.57;;;9.20;1.00;;;;;;5070286;28;20261;-68
2022/03/25 04:07:40;;;;;;;12.90;9.67;;;9.40;1.00;;;;;;5070546;28;20229;-67
2022/03/25 04:10:08;;;;;;;11.63;9.63;;;9.50;1.00;;;;;;5070021;28;20210;-67
2022/03/25 04:12:35;;;;;;;11.07;9.97;;;9.40;1.00;;;;;;5070691;28;20205;-67
2022/03/25 04:15:03;;;;;;;14.27;11.27;;;9.50;1.00;;;;;;5070442;28;20252;-67
2022/03/25 04:17:29;;;;;;;11.53;10.30;;;9.50;1.00;;;;;;5070492;28;20206;-68
2022/03/25 04:19:56;;;;;;;11.10;9.53;;;9.50;1.00;;;;;;5070272;28;20197;-68
2022/03/25 04:22:25;;;;;;;12.03;10.67;;;9.40;1.00;;;;;;5070321;28;20210;-67
2022/03/25 04:24:54;;;;;;;13.10;10.17;;;9.50;1.00;;;;;;5070342;28;20202;-67
2022/03/25 04:27:21;;;;;;;10.97;9.97;;;9.50;1.00;;;;;;5070496;28;20755;-67
2022/03/25 04:29:48;;;;;;;12.97;9.50;;;9.40;1.00;;;;;;5070068;28;20814;-66
2022/03/25 04:32:16;;;;;;;12.27;10.47;;;9.40;1.00;;;;;;5070735;28;20723;-67
2022/03/25 04:34:43;;;;;;;11.40;9.70;;;9.40;1.00;;;;;;5070761;28;20662;-66
2022/03/25 04:37:10;;;;;;;17.03;11.03;;;9.30;1.00;;;;;;5070182;28;20206;-67
2022/03/25 04:39:39;;;;;;;11.90;10.70;;;9.30;1.00;;;;;;5070375;28;20661;-67
2022/03/25 04:42:07;;;;;;;13.00;10.73;;;9.30;1.00;;;;;;5069888;28;20293;-65
2022/03/25 04:44:34;;;;;;;12.20;10.70;;;9.40;1.00;;;;;;5070449;28;20297;-66
2022/03/25 04:47:01;;;;;;;11.20;9.93;;;9.40;1.00;;;;;;5069888;28;20198;-66
2022/03/25 04:49:28;;;;;;;15.63;11.83;;;9.30;1.00;;;;;;5070263;28;20209;-66
2022/03/25 04:51:55;;;;;;;12.60;11.23;;;9.30;1.00;;;;;;5069768;28;20210;-66
2022/03/25 04:54:22;;;;;;;11.47;10.27;;;9.30;1.00;;;;;;5070071;28;20618;-66
2022/03/25 04:56:50;;;;;;;12.97;10.80;;;9.30;1.00;;;;;;5071099;28;20206;-66
2022/03/25 04:59:17;;;;;;;12.87;11.23;;;9.30;1.00;;;;;;5074158;28;20260;-66
2022/03/25 05:01:44;;;;;;;13.67;10.60;;;9.30;1.00;;;;;;5074334;28;20275;-67
2022/03/25 05:04:11;;;;;;;12.53;11.27;;;9.50;1.00;;;;;;5073782;28;20331;-67
2022/03/25 05:06:38;;;;;;;13.97;11.50;;;9.40;1.00;;;;;;5073959;28;20252;-67
2022/03/25 05:09:06;;;;;;;13.77;12.07;;;9.40;1.00;;;;;;5073504;28;20241;-67
2022/03/25 05:11:33;;;;;;;17.10;11.37;;;9.40;1.00;;;;;;5073800;28;20210;-66
2022/03/25 05:14:01;;;;;;;16.93;11.67;;;9.40;1.00;;;;;;5073504;28;20252;-66
2022/03/25 05:16:28;;;;;;;14.43;11.17;;;9.40;1.00;;;;;;5073643;28;20583;-66
2022/03/25 05:18:55;;;;;;;15.83;12.00;;;9.40;1.00;;;;;;5073265;28;20726;-67
2022/03/25 05:21:22;;;;;;;14.67;11.90;;;9.40;1.00;;;;;;5073406;28;20744;-67
2022/03/25 05:23:49;;;;;;;14.30;11.13;;;9.40;1.00;;;;;;5073120;28;20608;-67
2022/03/25 05:26:16;;;;;;;15.43;12.97;;;9.50;1.00;;;;;;5073582;28;20205;-68
2022/03/25 05:28:43;;;;;;;12.83;11.53;;;9.50;1.00;;;;;;5073511;28;20627;-67
2022/03/25 05:31:12;;;;;;;12.90;11.10;;;9.40;1.00;;;;;;5073392;28;20666;-66
2022/03/25 05:33:39;;;;;;;14.37;11.67;;;9.50;1.00;;;;;;5073522;28;20213;-66
2022/03/25 05:36:06;;;;;;;14.63;11.63;;;9.40;1.00;;;;;;5072800;28;20210;-66
2022/03/25 05:38:33;;;;;;;11.90;10.70;;;9.40;1.00;;;;;;5077056;28;20210;-66
2022/03/25 05:41:00;;;;;;;15.27;11.57;;;9.40;1.00;;;;;;5093123;28;20202;-66
2022/03/25 05:43:28;;;;;;;12.57;11.17;;;9.40;1.00;;;;;;5093187;28;20215;-67
2022/03/25 05:45:55;;;;;;;12.20;11.00;;;9.40;1.00;;;;;;5093243;28;20288;-67
2022/03/25 05:48:24;;;;;;;15.77;11.20;;;9.50;1.00;;;;;;5093555;28;20237;-67
2022/03/25 05:50:51;;;;;;;14.13;11.30;;;9.40;1.00;;;;;;5092559;28;20664;-67
2022/03/25 05:53:18;;;;;;;12.67;10.47;;;9.60;1.00;;;;;;5093257;28;20692;-67
2022/03/25 05:55:45;;;;;;;12.17;10.60;;;9.70;1.00;;;;;;5089832;28;20617;-67
2022/03/25 05:58:12;;;;;;;13.23;11.33;;;9.70;1.00;;;;;;5092006;28;20612;-67
2022/03/25 06:00:39;;;;;;;12.53;10.90;;;9.60;1.00;;;;;;5074823;28;20202;-68
2022/03/25 06:03:06;;;;;;;14.30;11.67;;;9.50;1.00;;;;;;5092575;28;20210;-67
2022/03/25 06:05:35;;;;;;;16.90;10.90;;;9.50;1.00;;;;;;5092544;28;20604;-67
2022/03/25 06:08:02;;;;;;;19.87;11.23;;;9.50;1.00;;;;;;5092099;28;20612;-69
2022/03/25 06:10:29;;;;;;;13.37;11.97;;;9.70;1.00;;;;;;5080998;28;20666;-67
2022/03/25 06:12:56;;;;;;;12.07;10.50;;;9.70;1.00;;;;;;5072337;28;20255;-67
2022/03/25 06:15:23;;;;;;;12.47;10.37;;;9.90;1.00;;;;;;5072883;28;20255;-67
2022/03/25 06:17:52;;;;;;;13.87;10.60;;;9.80;1.00;;;;;;5072232;28;20206;-67
2022/03/25 06:20:20;;;;;;;13.50;11.40;;;9.80;1.00;;;;;;5076088;28;20201;-67
2022/03/25 06:22:49;;;;;;;12.67;10.67;;;9.90;1.00;;;;;;5081656;28;20681;-70
2022/03/25 06:25:17;;;;;;;12.67;11.30;;;9.90;1.00;;;;;;5092397;28;20296;-69
2022/03/25 06:27:49;;;;;;;11.27;10.07;;;9.90;1.00;;;;;;5086412;28;20255;-67
2022/03/25 06:30:17;;;;;;;10.77;9.60;;;9.90;1.00;;;;;;5083719;28;20555;-68
2022/03/25 06:32:45;;;;;;;13.30;10.63;;;10.00;1.00;;;;;;5075315;28;20213;-67
2022/03/25 06:35:12;;;;;;;11.63;10.43;;;10.00;1.00;;;;;;5072501;28;20206;-67
2022/03/25 06:37:39;;;;;;;11.70;9.60;;;10.10;1.00;;;;;;5072118;28;20213;-68
2022/03/25 06:40:09;;;;;;;13.27;11.57;;;10.10;1.00;;;;;;5074768;28;20677;-68
2022/03/25 06:42:37;;;;;;;11.47;9.50;;;10.10;1.00;;;;;;5085764;28;20252;-67
2022/03/25 06:45:06;;;;;;;14.73;9.70;;;10.20;1.00;;;;;;5076500;28;20334;-67
2022/03/25 06:47:34;;;;;;;16.27;10.27;;;10.20;1.00;;;;;;5091978;28;20198;-67
2022/03/25 06:50:02;;;;;;;14.70;11.33;;;10.30;1.00;;;;;;5091646;28;20216;-68
2022/03/25 06:52:29;;;;;;;19.60;13.30;;;10.30;1.00;;;;;;5074172;28;20210;-68
2022/03/25 06:54:57;;;;;;;14.20;10.33;;;10.30;1.00;;;;;;5071610;28;20248;-68
2022/03/25 06:57:26;;;;;;;13.13;10.40;;;10.30;1.00;;;;;;5071804;28;20711;-69
2022/03/25 06:59:53;;;;;;;17.60;12.37;;;10.40;1.00;;;;;;5071269;28;20213;-69
2022/03/25 07:02:21;;;;;;;11.87;9.50;;;10.40;1.00;;;;;;5070944;28;20682;-69
2022/03/25 07:04:48;;;;;;;11.23;10.03;;;10.40;1.00;;;;;;5084197;28;20282;-70
2022/03/25 07:07:19;;;;;;;11.90;9.47;;;10.50;1.00;;;;;;5079367;28;20222;-70
2022/03/25 07:09:46;;;;;;;11.43;9.53;;;10.50;1.00;;;;;;5075583;28;20237;-70
2022/03/25 07:12:16;;;;;;;13.60;10.13;;;10.60;1.00;;;;;;5091670;28;20224;-69
2022/03/25 07:14:45;;;;;;;11.57;9.93;;;10.60;1.00;;;;;;5079768;28;20222;-71
2022/03/25 07:17:12;;;;;;;10.83;8.97;;;10.60;1.00;;;;;;5071443;28;20626;-69
2022/03/25 07:19:39;;;;;;;13.77;10.27;;;10.70;1.00;;;;;;5071004;28;20256;-70
2022/03/25 07:22:06;;;;;;;13.03;9.97;;;10.80;1.00;;;;;;5070689;28;20263;-69
2022/03/25 07:24:33;;;;;;;10.30;9.20;;;10.80;1.00;;;;;;5075270;28;20209;-69
2022/03/25 07:27:00;;;;;;;12.27;10.53;;;10.90;1.00;;;;;;5084995;28;20274;-69
2022/03/25 07:29:27;;;;;;;10.07;9.07;;;11.00;1.00;;;;;;5089881;28;20241;-69
2022/03/25 07:31:55;;;;;;;12.87;9.50;;;11.00;1.00;;;;;;5070760;28;20202;-69
2022/03/25 07:34:22;;;;;;;10.70;9.17;;;11.00;1.00;;;;;;5083218;28;20210;-69
2022/03/25 07:36:49;;;;;;;14.67;9.73;;;11.20;1.00;;;;;;5078296;28;20214;-69
2022/03/25 07:39:16;;;;;;;11.50;9.53;;;11.20;1.00;;;;;;5083768;28;20214;-69
2022/03/25 07:41:43;;;;;;;12.70;10.73;;;11.30;1.00;;;;;;5091703;28;20229;-68
2022/03/25 07:44:10;;;;;;;12.10;9.90;;;11.30;1.00;;;;;;5079105;28;20301;-68
2022/03/25 07:46:37;;;;;;;9.67;8.57;;;11.50;1.00;;;;;;5070740;28;20206;-68
2022/03/25 07:49:06;;;;;;;11.80;10.07;;;11.60;1.00;;;;;;5074700;28;20226;-68
2022/03/25 07:51:33;;;;;;;10.03;8.93;;;11.80;1.00;;;;;;5089645;28;20217;-69
2022/03/25 07:54:00;;;;;;;12.17;9.67;;;12.00;1.00;;;;;;5089007;28;20274;-70
2022/03/25 07:56:28;;;;;;;10.20;8.03;;;11.90;1.00;;;;;;5070859;28;20271;-68
2022/03/25 07:58:55;;;;;;;10.83;9.10;;;11.80;1.00;;;;;;5070318;28;20202;-68
2022/03/25 08:01:22;;;;;;;9.93;8.57;;;12.10;1.00;;;;;;5070552;28;20260;-69
2022/03/25 08:03:49;;;;;;;11.07;9.50;;;12.00;1.00;;;;;;5070531;28;20670;-68
2022/03/25 08:06:18;;;;;;;11.83;8.97;;;12.10;1.00;;;;;;5091105;28;20201;-69
2022/03/25 08:08:47;;;;;;;9.20;8.33;;;12.20;1.00;;;;;;5091280;28;20229;-69
2022/03/25 08:11:20;;;;;;;10.10;9.10;;;12.00;1.00;;;;;;5089826;28;20609;-68
2022/03/25 08:13:47;;;;;;;9.90;7.30;;;12.40;1.00;;;;;;5089685;28;20205;-70
2022/03/25 08:16:15;;;;;;;11.55;8.48;;;12.50;1.00;;;;;;5087821;28;20208;-68
2022/03/25 08:18:45;;;;;;;9.43;8.53;;;12.70;1.00;;;;;;5082952;28;20210;-69
2022/03/25 08:21:12;;;;;;;11.00;8.02;;;12.70;1.00;;;;;;5086899;28;20209;-69
2022/03/25 08:29:10;;;;;;;8.73;7.78;;;12.50;1.00;;;;;;5082895;28;20236;-68
2022/03/25 08:31:37;;;;;;;8.32;7.50;;;12.90;1.00;;;;;;5083469;28;20259;-69
2022/03/25 08:34:07;;;;;;;11.15;8.20;;;12.80;1.00;;;;;;5079539;28;20290;-70
2022/03/25 08:36:34;;;;;;;8.77;7.73;;;12.70;1.00;;;;;;5091038;28;20231;-71
2022/03/25 08:39:04;;;;;;;8.82;8.02;;;12.70;1.00;;;;;;5089100;28;20669;-69
2022/03/25 08:41:31;;;;;;;12.37;8.53;;;12.90;1.00;;;;;;5085691;28;20240;-71
2022/03/25 08:43:58;;;;;;;10.18;8.30;;;13.10;1.00;;;;;;5080446;28;20669;-71
2022/03/25 08:46:25;;;;;;;8.50;7.22;;;12.80;1.00;;;;;;5088398;28;20209;-71
2022/03/25 08:48:52;;;;;;;7.45;6.75;;;12.90;1.00;;;;;;5080564;28;20226;-71
2022/03/25 08:51:19;;;;;;;9.00;7.32;;;13.00;1.00;;;;;;5085676;28;20259;-71
2022/03/25 08:53:46;;;;;;;8.52;7.72;;;13.30;1.00;;;;;;5088053;28;20202;-69
2022/03/25 08:56:15;;;;;;;10.48;7.32;;;13.40;1.00;;;;;;5088618;28;20205;-70
2022/03/25 08:58:42;;;;;;;7.80;7.10;;;13.70;1.00;;;;;;5084671;28;20206;-71
2022/03/25 09:01:09;;;;;;;8.55;7.15;;;14.00;1.00;;;;;;5086955;28;20201;-71
2022/03/25 09:03:36;;;;;;;9.30;7.68;;;13.70;1.00;;;;;;5089854;28;20221;-71
2022/03/25 09:06:04;;;;;;;9.15;6.68;;;14.20;1.00;;;;;;5088146;28;20755;-70
2022/03/25 09:08:31;;;;;;;6.95;6.25;;;14.10;1.00;;;;;;5093477;28;20292;-71
2022/03/25 09:10:58;;;;;;;7.93;6.85;;;13.90;1.00;;;;;;5089917;28;20237;-71
2022/03/25 09:13:27;;;;;;;8.45;6.78;;;14.60;1.00;;;;;;5076285;28;20268;-73
2022/03/25 09:15:53;;;;;;;8.02;7.03;;;14.10;1.00;;;;;;5084761;28;20198;-72
2022/03/25 09:18:20;;;;;;;6.85;6.15;;;14.60;1.00;;;;;;5083674;28;20210;-71
2022/03/25 09:20:47;;;;;;;9.48;6.50;;;14.50;1.00;;;;;;5075778;28;20267;-72
2022/03/25 09:23:14;;;;;;;6.65;5.35;;;14.20;1.00;;;;;;5076967;28;20637;-72
2022/03/25 09:25:42;;;;;;;8.32;7.20;;;14.20;1.00;;;;;;5079156;28;20202;-72
2022/03/25 09:28:09;;;;;;;6.60;5.78;;;14.50;1.00;;;;;;5081554;28;20677;-71
2022/03/25 09:30:39;;;;;;;8.55;6.97;;;14.40;1.00;;;;;;5090759;28;20244;-71
2022/03/25 09:33:07;;;;;;;6.78;6.07;;;14.70;1.00;;;;;;5079146;28;20229;-71
2022/03/25 09:35:35;;;;;;;6.90;6.25;;;14.70;1.00;;;;;;5093633;28;20204;-72
2022/03/25 09:38:02;;;;;;;6.43;5.80;;;14.80;1.00;;;;;;5089401;28;20703;-71
2022/03/25 09:40:29;;;;;;;6.95;6.35;;;14.60;1.00;;;;;;5085327;28;20210;-71
2022/03/25 09:42:57;;;;;;;6.50;5.65;;;14.70;1.00;;;;;;5086817;28;20802;-71
2022/03/25 09:45:26;;;;;;;7.20;6.50;;;14.50;1.00;;;;;;5085360;28;20238;-70
2022/03/25 09:47:55;;;;;;;6.53;5.88;;;14.80;1.00;;;;;;5087322;28;20264;-70
2022/03/25 09:50:24;;;;;;;6.53;5.45;;;14.20;1.00;;;;;;5090530;28;20650;-70
2022/03/25 09:52:53;;;;;;;7.07;6.20;;;15.00;1.00;;;;;;5084166;28;20205;-72
2022/03/25 09:55:21;;;;;;;5.95;5.32;;;14.80;1.00;;;;;;5082555;28;20198;-71
2022/03/25 09:57:48;;;;;;;6.50;6.00;;;14.70;1.00;;;;;;5077840;28;20622;-71
2022/03/25 10:00:17;;;;;;;7.45;6.43;;;14.70;1.00;;;;;;5093628;28;20258;-70
2022/03/25 10:02:45;;;;;;;7.53;6.75;;;15.20;1.00;;;;;;5085294;28;20292;-71
2022/03/25 10:05:18;;;;;;;6.68;6.00;;;14.70;1.00;;;;;;5075816;28;20202;-72
2022/03/25 10:07:47;;;;;;;7.07;6.38;;;15.00;1.00;;;;;;5079621;28;20202;-71
2022/03/25 10:10:15;;;;;;;6.25;5.68;;;14.90;1.00;;;;;;5088823;28;20236;-70
2022/03/25 10:12:44;;;;;;;10.75;8.38;;;15.10;1.00;;;;;;5079423;28;20260;-71
2022/03/25 10:15:21;;;;;;;6.38;5.07;;;14.70;1.00;;;;;;5088777;28;20205;-71
2022/03/25 10:17:54;;;;;;;6.82;5.57;;;14.70;1.00;;;;;;5087382;28;20300;-71
2022/03/25 10:20:24;;;;;;;6.07;5.47;;;15.40;1.00;;;;;;5081010;28;20254;-71
2022/03/25 10:23:08;;;;;;;6.07;5.07;;;15.40;1.00;;;;;;5084082;28;20661;-71
2022/03/25 10:25:41;;;;;;;7.53;6.00;;;15.30;1.00;;;;;;5090225;28;20631;-71
2022/03/25 10:28:20;;;;;;;6.38;5.78;;;15.70;1.00;;;;;;5080230;28;20218;-71
2022/03/25 10:30:51;;;;;;;10.10;5.68;;;16.00;1.00;;;;;;5080239;28;20235;-71
2022/03/25 10:33:24;;;;;;;7.85;5.88;;;17.10;1.00;;;;;;5086942;28;20639;-69
2022/03/25 10:35:56;;;;;;;6.43;5.78;;;16.90;1.00;;;;;;5091403;28;20250;-71
2022/03/25 10:38:24;;;;;;;5.03;4.50;;;16.70;1.00;;;;;;5092241;28;20250;-71
2022/03/25 10:40:52;;;;;;;12.60;5.72;;;15.90;1.00;;;;;;5091537;28;20209;-70
2022/03/25 10:43:19;;;;;;;6.38;5.78;;;16.30;1.00;;;;;;5091851;28;20232;-69
2022/03/25 10:45:47;;;;;;;5.32;4.68;;;16.20;1.00;;;;;;5092107;28;20202;-69
2022/03/25 10:48:16;;;;;;;7.18;5.22;;;16.30;1.00;;;;;;5092008;28;20202;-69
2022/03/25 10:51:03;;;;;;;6.13;5.47;;;16.20;1.00;;;;;;5090485;28;20331;-69
2022/03/25 10:53:31;;;;;;;5.88;5.10;;;16.20;1.00;;;;;;5091804;28;20216;-69
2022/03/25 10:56:00;;;;;;;6.03;5.43;;;16.10;1.00;;;;;;5090975;28;20255;-69
2022/03/25 10:58:28;;;;;;;7.20;6.00;;;16.20;1.00;;;;;;5083219;28;20240;-69
2022/03/25 11:00:55;;;;;;;6.65;5.35;;;16.50;1.00;;;;;;5082751;28;20201;-70
2022/03/25 11:03:22;;;;;;;13.82;5.63;;;16.10;1.00;;;;;;5088037;28;20255;-69
2022/03/25 11:05:50;;;;;;;6.82;5.60;;;16.20;1.00;;;;;;5074512;28;20209;-69
2022/03/25 11:08:19;;;;;;;6.32;4.82;;;16.60;1.00;;;;;;5075684;28;20206;-70
2022/03/25 11:10:46;;;;;;;5.65;4.55;;;16.90;1.00;;;;;;5070703;28;20226;-69
2022/03/25 11:13:13;;;;;;;6.20;5.15;;;16.40;1.00;;;;;;5079372;28;20247;-69
2022/03/25 11:15:41;;;;;;;5.65;4.63;;;16.70;1.00;;;;;;5076451;28;20232;-69
2022/03/25 11:18:09;;;;;;;6.70;5.93;;;16.60;1.00;;;;;;5071476;28;20217;-69
2022/03/25 11:20:36;;;;;;;6.05;5.45;;;16.50;1.00;;;;;;5072967;28;20216;-69
2022/03/25 11:23:11;;;;;;;5.80;5.22;;;17.00;1.00;;;;;;5086375;28;20267;-70
2022/03/25 11:25:43;;;;;;;5.47;4.97;;;17.00;1.00;;;;;;5077037;28;20216;-69
2022/03/25 11:28:16;;;;;;;4.85;4.40;;;17.20;1.00;;;;;;5074628;28;20208;-68
2022/03/25 11:30:43;;;;;;;6.38;5.13;;;16.90;1.00;;;;;;5091724;28;20286;-69
2022/03/25 11:33:10;;;;;;;7.53;5.65;;;16.80;1.00;;;;;;5089928;28;20271;-70
2022/03/25 11:35:39;;;;;;;7.05;5.43;;;16.70;1.00;;;;;;5076613;28;20331;-70
2022/03/25 11:38:19;;;;;;;5.32;4.82;;;17.00;1.00;;;;;;5087182;28;20213;-69
2022/03/25 11:40:50;;;;;;;4.50;4.10;;;17.00;1.00;;;;;;5071215;28;20555;-70
2022/03/25 11:43:18;;;;;;;5.93;5.32;;;17.30;1.00;;;;;;5074878;28;20206;-69
2022/03/25 11:45:46;;;;;;;7.53;5.00;;;17.20;1.00;;;;;;5080414;28;20297;-70
2022/03/25 11:48:41;;;;;;;9.70;5.45;;;17.10;1.00;;;;;;5077564;28;20213;-68
2022/03/25 11:51:31;;;;;;;5.85;5.18;;;17.10;1.00;;;;;;5090579;28;20704;-69
2022/03/25 11:53:58;;;;;;;6.38;4.60;;;17.10;1.00;;;;;;5070859;28;20271;-69
2022/03/25 11:56:48;;;;;;;5.60;5.10;;;17.00;1.00;;;;;;5070846;28;20435;-69
2022/03/25 11:59:16;;;;;;;7.07;6.03;;;17.20;1.00;;;;;;5082498;28;20219;-70
2022/03/25 12:01:43;;;;;;;5.20;4.70;;;17.20;1.00;;;;;;5073210;28;20197;-69
2022/03/25 12:04:13;;;;;;;6.53;5.35;;;17.20;1.00;;;;;;5085637;28;20205;-69
2022/03/25 12:07:00;;;;;;;5.53;5.03;;;17.20;1.00;;;;;;5088611;28;20197;-69
2022/03/25 12:09:36;;;;;;;5.45;4.55;;;17.30;1.00;;;;;;5079182;28;20213;-69
2022/03/25 12:12:05;;;;;;;6.00;5.15;;;17.10;1.00;;;;;;5080101;28;20825;-69
2022/03/25 12:14:33;;;;;;;7.75;4.13;;;17.10;1.00;;;;;;5079699;28;20211;-69
2022/03/25 12:17:02;;;;;;;4.63;4.18;;;17.30;1.00;;;;;;5074797;28;20206;-70
2022/03/25 12:20:04;;;;;;;4.70;4.30;;;17.20;1.00;;;;;;5080865;28;20300;-69
2022/03/25 12:22:42;;;;;;;7.70;5.45;;;17.20;1.00;;;;;;5081404;28;20218;-69
2022/03/25 12:25:13;;;;;;;4.65;4.00;;;17.50;1.00;;;;;;5079135;28;20210;-68
2022/03/25 12:27:42;;;;;;;4.35;3.38;;;17.40;1.00;;;;;;5078953;28;20209;-70
2022/03/25 12:30:10;;;;;;;5.03;3.83;;;17.40;1.00;;;;;;5083143;28;20237;-70
2022/03/25 12:32:38;;;;;;;3.75;3.25;;;17.30;1.00;;;;;;5078937;28;20580;-69
2022/03/25 12:35:07;;;;;;;5.45;4.03;;;17.70;1.00;;;;;;5086690;28;20287;-69
2022/03/25 12:37:42;;;;;;;11.52;3.80;;;17.70;1.00;;;;;;5090074;28;20562;-79
2022/03/25 12:40:11;;;;;;;5.30;4.53;;;17.70;1.00;;;;;;5085545;28;20205;-81
2022/03/25 12:42:38;;;;;;;4.13;3.65;;;17.80;1.00;;;;;;5083986;28;20205;-70
2022/03/25 12:45:08;;;;;;;6.95;4.93;;;17.80;1.00;;;;;;5086832;28;20206;-70
2022/03/25 12:47:37;;;;;;;6.18;4.50;;;18.00;1.00;;;;;;5083017;28;20209;-70
2022/03/25 12:50:06;;;;;;;4.38;3.80;;;17.80;1.00;;;;;;5089372;28;20255;-70
2022/03/25 12:52:33;;;;;;;4.15;3.75;;;17.80;1.00;;;;;;5080199;28;21059;-70
2022/03/25 12:55:08;;;;;;;5.03;4.03;;;17.90;1.00;;;;;;5075669;28;20587;-69
2022/03/25 12:57:37;;;;;;;5.45;4.40;;;18.30;1.00;;;;;;5086680;28;20626;-68
2022/03/25 13:00:08;;;;;;;3.97;3.60;;;18.60;1.00;;;;;;5089669;28;20210;-68
2022/03/25 13:02:36;;;;;;;4.45;3.88;;;18.40;1.00;;;;;;5082081;28;20268;-70
2022/03/25 13:05:12;;;;;;;4.35;3.95;;;18.60;1.00;;;;;;5069548;28;20206;-69
2022/03/25 13:07:40;;;;;;;4.60;4.20;;;19.00;1.00;;;;;;5070306;28;20252;-69